sensor_id;sensor_type;location;lat;lon;timestamp;pressure;altitude;pressure_sealevel;temperature;humidity
50696;BME280;36665;51.786;21.594;2023-08-01T00:00:20;94269.58;;;14.45;63.46
50696;BME280;36665;51.786;21.594;2023-08-01T00:09:04;94249.63;;;14.40;63.48
50696;BME280;36665;51.786;21.594;2023-08-01T00:17:31;94243.91;;;14.40;63.46
50696;BME280;36665;51.786;21.594;2023-08-01T00:25:55;94258.77;;;14.42;63.35
50696;BME280;36665;51.786;21.594;2023-08-01T00:34:19;94301.44;;;14.54;63.59
50696;BME280;36665;51.786;21.594;2023-08-01T00:42:42;94332.14;;;14.62;63.56
50696;BME280;36665;51.786;21.594;2023-08-01T00:51:07;94358.58;;;14.69;63.61
50696;BME280;36665;51.786;21.594;2023-08-01T00:59:32;94373.78;;;14.73;63.62
50696;BME280;36665;51.786;21.594;2023-08-01T01:07:55;94389.98;;;14.76;63.57
50696;BME280;36665;51.786;21.594;2023-08-01T01:16:20;94414.13;;;14.82;63.60
50696;BME280;36665;51.786;21.594;2023-08-01T01:24:45;94426.27;;;14.86;63.63
50696;BME280;36665;51.786;21.594;2023-08-01T01:33:10;94437.23;;;14.89;63.75
50696;BME280;36665;51.786;21.594;2023-08-01T01:41:34;94426.14;;;14.85;63.56
50696;BME280;36665;51.786;21.594;2023-08-01T01:49:57;94399.35;;;14.79;63.65
50696;BME280;36665;51.786;21.594;2023-08-01T01:58:20;94393.38;;;14.78;63.83
50696;BME280;36665;51.786;21.594;2023-08-01T02:06:43;94397.77;;;14.79;63.85
50696;BME280;36665;51.786;21.594;2023-08-01T02:15:06;94423.58;;;14.85;63.61
50696;BME280;36665;51.786;21.594;2023-08-01T02:23:29;94438.02;;;14.88;63.67
50696;BME280;36665;51.786;21.594;2023-08-01T02:31:52;94399.16;;;14.79;63.61
50696;BME280;36665;51.786;21.594;2023-08-01T02:40:15;94343.17;;;14.65;63.70
50696;BME280;36665;51.786;21.594;2023-08-01T02:48:38;94289.22;;;14.51;63.89
50696;BME280;36665;51.786;21.594;2023-08-01T02:57:01;94248.57;;;14.41;63.83
50696;BME280;36665;51.786;21.594;2023-08-01T03:05:25;94234.96;;;14.37;63.80
50696;BME280;36665;51.786;21.594;2023-08-01T03:13:48;94231.90;;;14.36;63.85
50696;BME280;36665;51.786;21.594;2023-08-01T03:22:11;94263.08;;;14.45;63.68
50696;BME280;36665;51.786;21.594;2023-08-01T03:30:34;94319.11;;;14.59;63.77
50696;BME280;36665;51.786;21.594;2023-08-01T03:38:57;94377.02;;;14.73;64.14
50696;BME280;36665;51.786;21.594;2023-08-01T03:47:19;94442.31;;;14.90;64.31
50696;BME280;36665;51.786;21.594;2023-08-01T03:55:44;94545.17;;;15.17;64.00
50696;BME280;36665;51.786;21.594;2023-08-01T04:04:09;94680.34;;;15.51;64.04
50696;BME280;36665;51.786;21.594;2023-08-01T04:12:34;94784.22;;;15.76;64.40
50696;BME280;36665;51.786;21.594;2023-08-01T04:20:57;94859.73;;;15.96;64.46
50696;BME280;36665;51.786;21.594;2023-08-01T04:29:20;94934.20;;;16.14;64.44
50696;BME280;36665;51.786;21.594;2023-08-01T04:37:43;95006.02;;;16.30;64.42
50696;BME280;36665;51.786;21.594;2023-08-01T04:46:06;95059.69;;;16.44;64.34
50696;BME280;36665;51.786;21.594;2023-08-01T04:54:29;95110.77;;;16.56;64.63
50696;BME280;36665;51.786;21.594;2023-08-01T05:02:52;95175.98;;;16.73;64.54
50696;BME280;36665;51.786;21.594;2023-08-01T05:11:15;95276.03;;;16.97;64.78
50696;BME280;36665;51.786;21.594;2023-08-01T05:19:38;95406.63;;;17.28;64.89
50696;BME280;36665;51.786;21.594;2023-08-01T05:28:01;95562.54;;;17.66;65.03
50696;BME280;36665;51.786;21.594;2023-08-01T05:36:24;95727.58;;;18.06;65.10
50696;BME280;36665;51.786;21.594;2023-08-01T05:44:46;95911.21;;;18.51;65.17
50696;BME280;36665;51.786;21.594;2023-08-01T05:53:09;96263.95;;;19.35;65.24
50696;BME280;36665;51.786;21.594;2023-08-01T06:01:34;96655.97;;;20.28;65.69
50696;BME280;36665;51.786;21.594;2023-08-01T06:09:58;96828.11;;;20.67;65.53
50696;BME280;36665;51.786;21.594;2023-08-01T06:18:20;96987.30;;;21.04;65.87
50696;BME280;36665;51.786;21.594;2023-08-01T06:26:43;97154.80;;;21.42;65.89
50696;BME280;36665;51.786;21.594;2023-08-01T06:35:06;97378.73;;;21.93;66.19
50696;BME280;36665;51.786;21.594;2023-08-01T06:43:31;97511.14;;;22.23;66.05
50696;BME280;36665;51.786;21.594;2023-08-01T06:51:54;97595.75;;;22.42;66.12
50696;BME280;36665;51.786;21.594;2023-08-01T07:00:20;97593.98;;;22.40;66.26
50696;BME280;36665;51.786;21.594;2023-08-01T07:08:44;97635.55;;;22.49;66.26
50696;BME280;36665;51.786;21.594;2023-08-01T07:17:07;97685.50;;;22.60;66.18
50696;BME280;36665;51.786;21.594;2023-08-01T07:25:30;97744.13;;;22.74;66.36
50696;BME280;36665;51.786;21.594;2023-08-01T07:33:53;97835.23;;;22.93;66.21
50696;BME280;36665;51.786;21.594;2023-08-01T07:42:16;98010.59;;;23.33;66.33
50696;BME280;36665;51.786;21.594;2023-08-01T07:50:39;98346.45;;;24.09;66.49
50696;BME280;36665;51.786;21.594;2023-08-01T07:59:02;98692.66;;;24.84;66.52
50696;BME280;36665;51.786;21.594;2023-08-01T08:07:25;98730.88;;;24.92;66.67
50696;BME280;36665;51.786;21.594;2023-08-01T08:15:48;98765.59;;;25.00;66.60
50696;BME280;36665;51.786;21.594;2023-08-01T08:24:11;98897.59;;;25.28;66.56
50696;BME280;36665;51.786;21.594;2023-08-01T08:32:35;98961.67;;;25.43;66.69
50696;BME280;36665;51.786;21.594;2023-08-01T08:49:32;98726.64;;;24.89;66.66
50696;BME280;36665;51.786;21.594;2023-08-01T08:57:55;98601.04;;;24.61;66.66
50696;BME280;36665;51.786;21.594;2023-08-01T09:06:31;98550.89;;;24.50;66.46
50696;BME280;36665;51.786;21.594;2023-08-01T09:14:56;98476.30;;;24.34;66.47
50696;BME280;36665;51.786;21.594;2023-08-01T09:23:24;98343.86;;;24.04;66.49
50696;BME280;36665;51.786;21.594;2023-08-01T09:31:47;98201.86;;;23.73;66.28
50696;BME280;36665;51.786;21.594;2023-08-01T09:40:13;98117.38;;;23.54;66.36
50696;BME280;36665;51.786;21.594;2023-08-01T09:48:39;98054.08;;;23.40;66.28
50696;BME280;36665;51.786;21.594;2023-08-01T09:57:03;98027.84;;;23.35;66.35
50696;BME280;36665;51.786;21.594;2023-08-01T10:05:30;98092.95;;;23.50;66.10
50696;BME280;36665;51.786;21.594;2023-08-01T10:13:55;98213.48;;;23.76;66.22
50696;BME280;36665;51.786;21.594;2023-08-01T10:22:19;98300.45;;;23.97;66.15
50696;BME280;36665;51.786;21.594;2023-08-01T10:30:43;98347.18;;;24.07;66.12
50696;BME280;36665;51.786;21.594;2023-08-01T10:39:06;98294.43;;;23.95;66.18
50696;BME280;36665;51.786;21.594;2023-08-01T10:47:29;98163.58;;;23.66;66.11
50696;BME280;36665;51.786;21.594;2023-08-01T10:55:53;98095.12;;;23.51;66.15
50696;BME280;36665;51.786;21.594;2023-08-01T11:04:18;98022.36;;;23.35;66.16
50696;BME280;36665;51.786;21.594;2023-08-01T11:12:43;97837.67;;;22.92;65.79
50696;BME280;36665;51.786;21.594;2023-08-01T11:21:06;97631.25;;;22.45;65.89
50696;BME280;36665;51.786;21.594;2023-08-01T11:29:30;97473.20;;;22.09;65.80
50696;BME280;36665;51.786;21.594;2023-08-01T11:37:53;97366.22;;;21.85;65.74
50696;BME280;36665;51.786;21.594;2023-08-01T11:46:16;97234.98;;;21.54;65.74
50696;BME280;36665;51.786;21.594;2023-08-01T11:54:45;97130.94;;;21.31;65.76
50696;BME280;36665;51.786;21.594;2023-08-01T12:03:09;97051.86;;;21.12;65.64
50696;BME280;36665;51.786;21.594;2023-08-01T12:11:37;96924.58;;;20.84;65.49
50696;BME280;36665;51.786;21.594;2023-08-01T12:20:01;96852.96;;;20.68;65.51
50696;BME280;36665;51.786;21.594;2023-08-01T12:28:24;96863.48;;;20.71;65.49
50696;BME280;36665;51.786;21.594;2023-08-01T12:36:46;97020.14;;;21.07;65.37
50696;BME280;36665;51.786;21.594;2023-08-01T12:45:11;97173.91;;;21.43;65.45
50696;BME280;36665;51.786;21.594;2023-08-01T12:53:35;97451.70;;;22.08;65.47
50696;BME280;36665;51.786;21.594;2023-08-01T13:02:01;97582.46;;;22.38;65.47
50696;BME280;36665;51.786;21.594;2023-08-01T13:10:24;97601.60;;;22.42;65.69
50696;BME280;36665;51.786;21.594;2023-08-01T13:18:47;97649.79;;;22.53;65.54
50696;BME280;36665;51.786;21.594;2023-08-01T13:27:11;97695.12;;;22.63;65.56
50696;BME280;36665;51.786;21.594;2023-08-01T13:35:36;97768.29;;;22.79;65.54
50696;BME280;36665;51.786;21.594;2023-08-01T13:43:59;97826.71;;;22.93;65.73
50696;BME280;36665;51.786;21.594;2023-08-01T13:52:22;97865.81;;;23.02;65.71
50696;BME280;36665;51.786;21.594;2023-08-01T14:00:45;97807.35;;;22.89;65.69
50696;BME280;36665;51.786;21.594;2023-08-01T14:09:09;97653.70;;;22.53;65.74
50696;BME280;36665;51.786;21.594;2023-08-01T14:17:32;97463.06;;;22.09;65.63
50696;BME280;36665;51.786;21.594;2023-08-01T14:25:57;97321.99;;;21.75;65.70
50696;BME280;36665;51.786;21.594;2023-08-01T14:34:21;97202.92;;;21.50;65.70
50696;BME280;36665;51.786;21.594;2023-08-01T14:42:47;97098.36;;;21.25;65.66
50696;BME280;36665;51.786;21.594;2023-08-01T14:51:12;97004.65;;;21.04;65.37
50696;BME280;36665;51.786;21.594;2023-08-01T14:59:35;96929.36;;;20.87;65.26
50696;BME280;36665;51.786;21.594;2023-08-01T15:08:00;96873.66;;;20.73;65.31
50696;BME280;36665;51.786;21.594;2023-08-01T15:16:22;96833.52;;;20.64;65.45
50696;BME280;36665;51.786;21.594;2023-08-01T15:24:46;96788.34;;;20.54;65.40
50696;BME280;36665;51.786;21.594;2023-08-01T15:33:09;96735.20;;;20.40;65.36
50696;BME280;36665;51.786;21.594;2023-08-01T15:41:33;96701.73;;;20.32;65.27
50696;BME280;36665;51.786;21.594;2023-08-01T15:49:56;96688.27;;;20.29;65.28
50696;BME280;36665;51.786;21.594;2023-08-01T15:58:19;96693.58;;;20.31;65.49
50696;BME280;36665;51.786;21.594;2023-08-01T16:06:42;96672.13;;;20.26;65.33
50696;BME280;36665;51.786;21.594;2023-08-01T16:15:07;96605.08;;;20.10;65.48
50696;BME280;36665;51.786;21.594;2023-08-01T16:23:31;96524.13;;;19.91;65.26
50696;BME280;36665;51.786;21.594;2023-08-01T16:31:54;96449.95;;;19.73;65.18
50696;BME280;36665;51.786;21.594;2023-08-01T16:40:17;96389.98;;;19.59;65.26
50696;BME280;36665;51.786;21.594;2023-08-01T16:48:40;96324.02;;;19.43;65.29
50696;BME280;36665;51.786;21.594;2023-08-01T16:57:03;96261.79;;;19.28;65.38
50696;BME280;36665;51.786;21.594;2023-08-01T17:05:27;96208.13;;;19.15;65.33
50696;BME280;36665;51.786;21.594;2023-08-01T17:13:50;96160.96;;;19.04;65.32
50696;BME280;36665;51.786;21.594;2023-08-01T17:22:13;96130.27;;;18.97;65.17
50696;BME280;36665;51.786;21.594;2023-08-01T17:30:39;96072.86;;;18.82;65.18
50696;BME280;36665;51.786;21.594;2023-08-01T17:39:04;96012.86;;;18.69;65.27
50696;BME280;36665;51.786;21.594;2023-08-01T17:47:28;95965.02;;;18.57;65.33
50696;BME280;36665;51.786;21.594;2023-08-01T17:55:51;95908.78;;;18.44;65.40
50696;BME280;36665;51.786;21.594;2023-08-01T18:04:14;95859.19;;;18.32;65.33
50696;BME280;36665;51.786;21.594;2023-08-01T18:12:37;95828.80;;;18.24;65.36
50696;BME280;36665;51.786;21.594;2023-08-01T18:21:01;95785.35;;;18.13;65.34
50696;BME280;36665;51.786;21.594;2023-08-01T18:29:25;95749.30;;;18.05;65.31
50696;BME280;36665;51.786;21.594;2023-08-01T18:37:48;95722.29;;;17.99;65.30
50696;BME280;36665;51.786;21.594;2023-08-01T18:46:11;95695.90;;;17.92;65.32
50696;BME280;36665;51.786;21.594;2023-08-01T18:54:35;95669.19;;;17.85;65.10
50696;BME280;36665;51.786;21.594;2023-08-01T19:02:59;95635.31;;;17.77;65.33
50696;BME280;36665;51.786;21.594;2023-08-01T19:11:22;95616.44;;;17.72;65.25
50696;BME280;36665;51.786;21.594;2023-08-01T19:19:45;95596.98;;;17.68;65.30
50696;BME280;36665;51.786;21.594;2023-08-01T19:28:08;95567.43;;;17.60;65.26
50696;BME280;36665;51.786;21.594;2023-08-01T19:36:32;95527.80;;;17.51;65.43
50696;BME280;36665;51.786;21.594;2023-08-01T19:44:56;95494.96;;;17.42;65.39
50696;BME280;36665;51.786;21.594;2023-08-01T19:53:20;95475.18;;;17.37;65.37
50696;BME280;36665;51.786;21.594;2023-08-01T20:01:48;95451.91;;;17.31;65.43
50696;BME280;36665;51.786;21.594;2023-08-01T20:10:12;95421.12;;;17.23;65.45
50696;BME280;36665;51.786;21.594;2023-08-01T20:18:35;95396.14;;;17.18;65.45
50696;BME280;36665;51.786;21.594;2023-08-01T20:26:59;95365.79;;;17.10;65.34
50696;BME280;36665;51.786;21.594;2023-08-01T20:35:22;95326.23;;;17.00;65.55
50696;BME280;36665;51.786;21.594;2023-08-01T20:43:45;95294.89;;;16.92;65.57
50696;BME280;36665;51.786;21.594;2023-08-01T20:52:08;95283.55;;;16.89;65.38
50696;BME280;36665;51.786;21.594;2023-08-01T21:00:31;95259.30;;;16.84;65.65
50696;BME280;36665;51.786;21.594;2023-08-01T21:08:54;95245.66;;;16.80;65.62
50696;BME280;36665;51.786;21.594;2023-08-01T21:17:27;95235.73;;;16.77;65.63
50696;BME280;36665;51.786;21.594;2023-08-01T21:25:50;95228.27;;;16.75;65.58
50696;BME280;36665;51.786;21.594;2023-08-01T21:34:14;95215.98;;;16.73;65.69
50696;BME280;36665;51.786;21.594;2023-08-01T21:42:37;95203.84;;;16.69;65.53
50696;BME280;36665;51.786;21.594;2023-08-01T21:51:01;95192.14;;;16.67;65.80
50696;BME280;36665;51.786;21.594;2023-08-01T21:59:24;95185.13;;;16.64;65.60
50696;BME280;36665;51.786;21.594;2023-08-01T22:07:47;95174.79;;;16.61;65.76
50696;BME280;36665;51.786;21.594;2023-08-01T22:16:10;95158.52;;;16.57;65.71
50696;BME280;36665;51.786;21.594;2023-08-01T22:24:34;95144.84;;;16.53;65.93
50696;BME280;36665;51.786;21.594;2023-08-01T22:32:57;95142.08;;;16.53;65.92
50696;BME280;36665;51.786;21.594;2023-08-01T22:41:21;95144.55;;;16.53;65.88
50696;BME280;36665;51.786;21.594;2023-08-01T22:49:44;95142.48;;;16.53;65.88
50696;BME280;36665;51.786;21.594;2023-08-01T22:58:26;95139.14;;;16.51;66.11
50696;BME280;36665;51.786;21.594;2023-08-01T23:06:49;95131.17;;;16.49;66.10
50696;BME280;36665;51.786;21.594;2023-08-01T23:15:12;95108.77;;;16.43;66.00
50696;BME280;36665;51.786;21.594;2023-08-01T23:23:35;95087.36;;;16.38;66.21
50696;BME280;36665;51.786;21.594;2023-08-01T23:31:58;95065.04;;;16.33;66.14
50696;BME280;36665;51.786;21.594;2023-08-01T23:40:21;95046.59;;;16.28;66.05
50696;BME280;36665;51.786;21.594;2023-08-01T23:48:44;95030.69;;;16.23;66.15
50696;BME280;36665;51.786;21.594;2023-08-01T23:57:07;95019.80;;;16.21;66.24
